Time;durP1;ratioP1;P1;durP2;ratioP2;P2;SDS_P1;SDS_P2;PMS_P1;PMS_P2;Temp;Humidity;BMP_temperature;BMP_pressure;BME280_temperature;BME280_humidity;BME280_pressure;Samples;Min_cycle;Max_cycle;Signal;HPM_P1;HPM_P2
2023/10/23 00:00:38;;;;;;;2.63;1.05;;;;;;;12.36;100.00;100814.59;5057194;28;20135;-67
2023/10/23 00:03:03;;;;;;;1.85;1.00;;;;;;;12.37;100.00;100812.88;5051394;28;20040;-67
2023/10/23 00:05:29;;;;;;;2.05;1.00;;;;;;;12.36;100.00;100821.53;5048576;28;20133;-66
2023/10/23 00:07:55;;;;;;;1.17;0.90;;;;;;;12.35;100.00;100809.44;5053714;28;20064;-67
2023/10/23 00:10:20;;;;;;;1.92;1.10;;;;;;;12.34;100.00;100816.38;5058527;28;20538;-67
2023/10/23 00:12:46;;;;;;;2.83;1.10;;;;;;;12.32;100.00;100818.13;5053207;28;20068;-67
2023/10/23 00:15:12;;;;;;;2.47;1.00;;;;;;;12.31;100.00;100818.16;5052750;28;20040;-67
2023/10/23 00:17:38;;;;;;;3.50;1.45;;;;;;;12.30;100.00;100821.59;5057159;28;20033;-67
2023/10/23 00:20:04;;;;;;;1.90;1.20;;;;;;;12.27;100.00;100827.69;5053165;28;20036;-67
2023/10/23 00:22:29;;;;;;;6.75;1.80;;;;;;;12.26;100.00;100827.69;5054997;28;20070;-67
2023/10/23 00:24:55;;;;;;;1.90;1.13;;;;;;;12.23;100.00;100828.59;5056257;28;20045;-67
2023/10/23 00:27:20;;;;;;;4.10;1.33;;;;;;;12.22;100.00;100821.72;5040255;28;20128;-67
2023/10/23 00:29:45;;;;;;;3.22;1.30;;;;;;;12.21;100.00;100816.56;5053966;28;20043;-67
2023/10/23 00:32:11;;;;;;;3.28;1.23;;;;;;;12.21;100.00;100819.16;5055206;28;20550;-66
2023/10/23 00:34:36;;;;;;;1.80;1.00;;;;;;;12.19;100.00;100821.78;5056602;28;20085;-67
2023/10/23 00:37:01;;;;;;;4.07;1.20;;;;;;;12.15;100.00;100832.19;5054035;28;20032;-66
2023/10/23 00:39:27;;;;;;;2.97;1.20;;;;;;;12.13;100.00;100821.84;5055515;28;20630;-66
2023/10/23 00:41:52;;;;;;;3.28;1.42;;;;;;;12.10;100.00;100821.91;5057104;28;20051;-67
2023/10/23 00:44:17;;;;;;;3.13;1.20;;;;;;;12.06;100.00;100824.53;5052531;28;20032;-67
2023/10/23 00:46:43;;;;;;;2.92;1.52;;;;;;;12.01;100.00;100829.78;5054691;28;20786;-67
2023/10/23 00:49:09;;;;;;;3.78;1.42;;;;;;;11.95;100.00;100827.28;5055831;28;20045;-67
2023/10/23 00:51:35;;;;;;;2.88;1.40;;;;;;;11.90;100.00;100826.47;5051675;28;20045;-67
2023/10/23 00:54:02;;;;;;;3.45;1.48;;;;;;;11.84;100.00;100829.16;5050828;28;20132;-67
2023/10/23 00:56:28;;;;;;;3.80;1.25;;;;;;;11.78;100.00;100830.06;5055838;28;20090;-67
2023/10/23 00:58:54;;;;;;;2.03;1.08;;;;;;;11.72;100.00;100818.94;5051824;28;20028;-67
2023/10/23 01:01:20;;;;;;;3.80;1.25;;;;;;;11.68;100.00;100827.63;5052418;28;20044;-66
2023/10/23 01:03:46;;;;;;;4.80;1.38;;;;;;;11.62;100.00;100825.09;5048534;28;20113;-67
2023/10/23 01:06:14;;;;;;;4.72;1.38;;;;;;;11.56;100.00;100828.63;5058900;28;20854;-66
2023/10/23 01:08:39;;;;;;;2.90;1.52;;;;;;;11.55;100.00;100828.63;5060121;28;20499;-67
2023/10/23 01:11:05;;;;;;;4.47;1.65;;;;;;;11.51;100.00;100827.81;5057243;28;20116;-67
2023/10/23 01:13:30;;;;;;;2.90;1.65;;;;;;;11.49;100.00;100834.72;5059825;28;20032;-67
2023/10/23 01:15:56;;;;;;;2.67;2.00;;;;;;;11.49;100.00;100836.47;5054295;28;20120;-67
2023/10/23 01:18:21;;;;;;;4.43;1.88;;;;;;;11.49;100.00;100831.28;5050844;28;20060;-67
2023/10/23 01:20:48;;;;;;;5.00;2.08;;;;;;;11.48;100.00;100827.00;5060768;28;20055;-66
2023/10/23 01:23:13;;;;;;;3.65;1.73;;;;;;;11.46;100.00;100826.13;5059605;28;20483;-66
2023/10/23 01:25:39;;;;;;;3.58;1.83;;;;;;;11.41;100.00;100825.31;5056110;28;20037;-67
2023/10/23 01:28:04;;;;;;;2.80;1.80;;;;;;;11.33;100.00;100825.41;5051798;28;20040;-66
2023/10/23 01:30:30;;;;;;;6.97;1.58;;;;;;;11.28;100.00;100824.56;5057918;28;20052;-66
2023/10/23 01:32:56;;;;;;;5.72;1.63;;;;;;;11.21;100.00;100826.38;5053853;28;20064;-67
2023/10/23 01:35:21;;;;;;;8.27;3.38;;;;;;;11.16;100.00;100830.72;5059917;28;20036;-67
2023/10/23 01:37:47;;;;;;;5.20;2.67;;;;;;;11.11;100.00;100826.47;5053963;28;20033;-66
2023/10/23 01:40:13;;;;;;;6.47;2.45;;;;;;;11.07;100.00;100833.41;5040509;28;20047;-66
2023/10/23 01:42:39;;;;;;;2.55;1.80;;;;;;;11.05;100.00;100835.16;5069923;28;20151;-67
2023/10/23 01:45:05;;;;;;;4.00;1.98;;;;;;;11.01;100.00;100833.44;5068689;28;20254;-66
2023/10/23 01:47:30;;;;;;;2.85;1.67;;;;;;;10.94;100.00;100834.41;5053300;28;20538;-66
2023/10/23 01:49:56;;;;;;;3.67;1.77;;;;;;;10.88;100.00;100841.34;5052695;28;20033;-66
2023/10/23 01:52:21;;;;;;;5.75;1.80;;;;;;;10.83;100.00;100841.41;5057517;28;20517;-66
2023/10/23 01:54:50;;;;;;;5.63;2.10;;;;;;;10.76;100.00;100835.41;5054886;28;20058;-67
2023/10/23 01:57:15;;;;;;;2.88;2.03;;;;;;;10.68;100.00;100842.34;5058291;28;20868;-66
2023/10/23 01:59:41;;;;;;;3.08;2.35;;;;;;;10.61;100.00;100838.13;5053198;28;20036;-66
2023/10/23 02:02:06;;;;;;;3.25;1.80;;;;;;;10.55;100.00;100840.75;5057430;28;20037;-66
2023/10/23 02:04:32;;;;;;;5.22;2.00;;;;;;;10.51;100.00;100836.44;5056369;28;20402;-66
2023/10/23 02:06:57;;;;;;;4.45;1.70;;;;;;;10.47;100.00;100839.94;5059176;28;20036;-67
2023/10/23 02:09:23;;;;;;;2.88;1.67;;;;;;;10.44;100.00;100844.28;5060893;28;20671;-66
2023/10/23 02:11:49;;;;;;;6.05;1.95;;;;;;;10.39;100.00;100844.28;5058375;28;20032;-67
2023/10/23 02:14:14;;;;;;;2.47;1.73;;;;;;;10.34;100.00;100840.88;5062211;28;20031;-67
2023/10/23 02:16:40;;;;;;;3.20;1.75;;;;;;;10.29;100.00;100844.38;5062897;28;20052;-66
2023/10/23 02:19:05;;;;;;;3.80;1.80;;;;;;;10.26;100.00;100837.50;5065673;28;20562;-70
2023/10/23 02:21:31;;;;;;;3.58;2.20;;;;;;;10.24;100.00;100849.53;5057428;28;20032;-70
2023/10/23 02:23:56;;;;;;;4.25;1.95;;;;;;;10.19;100.00;100839.25;5043851;28;20040;-70
2023/10/23 02:26:21;;;;;;;3.83;1.65;;;;;;;10.17;100.00;100853.91;5046087;28;20076;-69
2023/10/23 02:28:47;;;;;;;4.40;1.90;;;;;;;10.11;100.00;100851.34;5058284;28;20017;-69
2023/10/23 02:31:13;;;;;;;4.80;1.77;;;;;;;10.11;100.00;100858.25;5052695;28;20037;-70
2023/10/23 02:33:38;;;;;;;3.83;1.70;;;;;;;10.08;100.00;100847.94;5024755;28;20039;-71
2023/10/23 02:36:03;;;;;;;6.00;1.80;;;;;;;10.04;100.00;100844.50;5060656;28;20048;-70
2023/10/23 02:38:29;;;;;;;6.97;1.65;;;;;;;10.01;100.00;100841.94;5061687;28;20516;-70
2023/10/23 02:40:55;;;;;;;4.95;1.60;;;;;;;9.98;100.00;100843.66;5058824;28;20119;-70
2023/10/23 02:43:20;;;;;;;5.55;2.33;;;;;;;9.94;100.00;100850.56;5057419;28;20110;-69
2023/10/23 02:45:46;;;;;;;3.05;1.90;;;;;;;9.94;100.00;100854.88;5044258;28;20115;-70
2023/10/23 02:48:13;;;;;;;5.93;2.40;;;;;;;9.95;100.00;100852.28;5057542;28;20037;-70
2023/10/23 02:50:38;;;;;;;7.55;2.40;;;;;;;9.94;100.00;100847.97;5055468;28;20079;-70
2023/10/23 02:53:05;;;;;;;5.25;1.85;;;;;;;9.91;100.00;100853.16;5062302;28;20035;-69
2023/10/23 02:55:31;;;;;;;4.85;2.20;;;;;;;9.87;100.00;100850.59;5056503;28;20021;-70
2023/10/23 02:57:57;;;;;;;7.32;2.42;;;;;;;9.85;100.00;100853.16;5062258;28;20062;-69
2023/10/23 03:00:22;;;;;;;5.93;1.95;;;;;;;9.84;100.00;100854.06;5065444;28;20112;-70
2023/10/23 03:02:48;;;;;;;4.65;2.00;;;;;;;9.82;100.00;100850.63;5041683;28;20535;-69
2023/10/23 03:05:14;;;;;;;8.70;2.28;;;;;;;9.82;100.00;100853.22;5052663;28;20060;-69
2023/10/23 03:07:40;;;;;;;5.57;2.15;;;;;;;9.80;100.00;100860.09;5059672;28;20037;-70
2023/10/23 03:10:06;;;;;;;3.92;2.00;;;;;;;9.78;100.00;100859.25;5053333;28;20036;-70
2023/10/23 03:12:31;;;;;;;5.78;1.88;;;;;;;9.77;100.00;100854.94;5056264;28;20041;-69
2023/10/23 03:14:57;;;;;;;5.78;2.30;;;;;;;9.76;100.00;100855.81;5038729;28;20120;-70
2023/10/23 03:17:22;;;;;;;4.07;1.85;;;;;;;9.75;100.00;100854.09;5060054;28;20048;-69
2023/10/23 03:19:47;;;;;;;4.50;2.25;;;;;;;9.76;100.00;100852.38;5060052;28;20111;-70
2023/10/23 03:22:13;;;;;;;6.03;2.38;;;;;;;9.76;100.00;100853.25;5061736;28;20560;-70
2023/10/23 03:24:38;;;;;;;8.18;2.15;;;;;;;9.76;100.00;100857.53;5055132;28;20070;-69
2023/10/23 03:27:04;;;;;;;3.60;2.08;;;;;;;9.75;100.00;100853.22;5055485;28;20036;-69
2023/10/23 03:29:30;;;;;;;7.18;2.05;;;;;;;9.74;100.00;100854.94;5056126;28;20155;-70
2023/10/23 03:31:55;;;;;;;5.38;1.80;;;;;;;9.75;100.00;100863.56;5043642;28;20036;-70
2023/10/23 03:34:21;;;;;;;6.88;2.95;;;;;;;9.73;100.00;100868.72;5056661;28;20052;-70
2023/10/23 03:36:46;;;;;;;5.68;2.13;;;;;;;9.74;100.00;100865.28;5039939;28;20045;-70
2023/10/23 03:39:11;;;;;;;3.35;2.03;;;;;;;9.74;100.00;100866.97;5060318;28;20045;-70
2023/10/23 03:41:37;;;;;;;3.85;1.98;;;;;;;9.74;100.00;100870.44;5057181;28;20028;-70
2023/10/23 03:44:03;;;;;;;5.38;2.45;;;;;;;9.75;100.00;100869.56;5060929;28;20660;-68
2023/10/23 03:46:30;;;;;;;4.30;2.03;;;;;;;9.74;100.00;100861.81;5057152;28;20036;-69
2023/10/23 03:48:56;;;;;;;4.55;2.08;;;;;;;9.73;100.00;100868.72;5057522;28;20064;-70
2023/10/23 03:51:21;;;;;;;6.82;2.60;;;;;;;9.71;100.00;100877.31;5056034;28;20135;-70
2023/10/23 03:53:47;;;;;;;6.22;2.45;;;;;;;9.71;100.00;100879.91;5057302;28;20132;-70
2023/10/23 03:56:12;;;;;;;4.80;1.92;;;;;;;9.67;100.00;100874.75;5052600;28;20062;-69
2023/10/23 03:58:38;;;;;;;3.80;2.00;;;;;;;9.63;100.00;100878.22;5057864;28;20456;-70
2023/10/23 04:01:03;;;;;;;7.22;2.28;;;;;;;9.59;100.00;100876.50;5050712;28;20059;-70
2023/10/23 04:03:28;;;;;;;3.75;2.08;;;;;;;9.55;100.00;100869.63;5050294;28;20036;-70
2023/10/23 04:05:54;;;;;;;5.63;2.30;;;;;;;9.50;100.00;100871.31;5053507;28;20840;-70
2023/10/23 04:08:19;;;;;;;3.20;2.20;;;;;;;9.48;100.00;100867.03;5053943;28;20051;-69
2023/10/23 04:10:48;;;;;;;4.32;2.30;;;;;;;9.43;100.00;100869.66;5051433;28;20029;-69
2023/10/23 04:13:15;;;;;;;7.05;3.00;;;;;;;9.38;100.00;100880.81;5054384;28;20120;-69
2023/10/23 04:15:50;;;;;;;9.40;2.30;;;;;;;9.36;100.00;100879.97;5054233;28;20866;-70
2023/10/23 04:18:16;;;;;;;5.65;2.55;;;;;;;9.30;100.00;100879.97;5047568;28;20025;-69
2023/10/23 04:20:41;;;;;;;4.53;2.40;;;;;;;9.27;100.00;100880.84;5056062;28;20032;-69
2023/10/23 04:23:07;;;;;;;10.98;2.63;;;;;;;9.23;100.00;100879.09;5056581;28;20457;-69
2023/10/23 04:25:32;;;;;;;6.32;3.10;;;;;;;9.19;100.00;100872.25;5058013;28;20040;-69
2023/10/23 04:27:57;;;;;;;3.90;2.25;;;;;;;9.14;100.00;100877.41;5051657;28;20032;-69
2023/10/23 04:30:23;;;;;;;3.38;2.20;;;;;;;9.12;100.00;100881.72;5055093;28;20048;-70
2023/10/23 04:32:48;;;;;;;6.30;2.40;;;;;;;9.08;100.00;100876.53;5057319;28;20751;-70
2023/10/23 04:35:14;;;;;;;6.45;2.30;;;;;;;9.03;100.00;100884.28;5059225;28;20032;-69
2023/10/23 04:37:39;;;;;;;6.80;2.60;;;;;;;8.99;100.00;100877.41;5057206;28;20691;-69
2023/10/23 04:40:05;;;;;;;6.35;2.40;;;;;;;8.99;100.00;100877.41;5055504;28;20794;-69
2023/10/23 04:42:31;;;;;;;6.30;3.15;;;;;;;8.98;100.00;100880.00;5055562;28;20061;-70
2023/10/23 04:44:56;;;;;;;5.18;2.75;;;;;;;8.94;100.00;100873.97;5056323;28;20178;-69
2023/10/23 04:47:21;;;;;;;5.47;2.70;;;;;;;8.91;100.00;100871.41;5059084;28;20033;-69
2023/10/23 04:49:47;;;;;;;5.90;2.63;;;;;;;8.87;100.00;100882.56;5053482;28;20040;-68
2023/10/23 04:52:13;;;;;;;7.00;3.35;;;;;;;8.85;100.00;100876.56;5054419;28;21005;-70
2023/10/23 04:54:38;;;;;;;5.70;2.58;;;;;;;8.82;100.00;100878.25;5056965;28;20033;-70
2023/10/23 04:57:04;;;;;;;9.43;2.78;;;;;;;8.78;100.00;100871.41;5056959;28;20522;-69
2023/10/23 04:59:29;;;;;;;5.28;2.90;;;;;;;8.76;100.00;100871.41;5053182;28;20741;-68
2023/10/23 05:01:55;;;;;;;5.93;3.60;;;;;;;8.76;100.00;100870.53;5058974;28;20075;-69
2023/10/23 05:04:20;;;;;;;6.13;3.13;;;;;;;8.73;100.00;100873.09;5048944;28;20139;-68
2023/10/23 05:06:45;;;;;;;4.28;2.97;;;;;;;8.70;100.00;100866.22;5049068;28;20123;-69
2023/10/23 05:09:12;;;;;;;5.88;3.30;;;;;;;8.68;100.00;100867.97;5052649;28;20183;-69
2023/10/23 05:11:38;;;;;;;6.00;3.47;;;;;;;8.65;100.00;100859.38;5052024;28;20048;-69
2023/10/23 05:14:03;;;;;;;5.95;3.40;;;;;;;8.65;100.00;100861.94;5054804;28;20029;-68
2023/10/23 05:16:29;;;;;;;7.13;3.78;;;;;;;8.64;100.00;100861.06;5051870;28;20025;-69
2023/10/23 05:18:54;;;;;;;6.40;3.28;;;;;;;8.62;100.00;100864.50;5049817;28;20044;-69
2023/10/23 05:21:19;;;;;;;8.65;4.00;;;;;;;8.59;100.00;100870.53;5049774;28;20047;-70
2023/10/23 05:23:45;;;;;;;5.75;3.35;;;;;;;8.56;100.00;100866.22;5034761;28;20577;-69
2023/10/23 05:26:11;;;;;;;5.60;3.75;;;;;;;8.56;100.00;100862.78;5028455;28;20946;-69
2023/10/23 05:28:40;;;;;;;7.82;3.70;;;;;;;8.54;100.00;100865.34;5052052;28;20028;-68
2023/10/23 05:31:06;;;;;;;6.10;3.90;;;;;;;8.54;100.00;100861.94;5052599;28;20177;-69
2023/10/23 05:33:32;;;;;;;9.07;4.68;;;;;;;8.56;100.00;100860.22;5055418;28;20044;-69
2023/10/23 05:36:03;;;;;;;5.35;3.63;;;;;;;8.53;100.00;100866.22;5052680;28;20088;-70
2023/10/23 05:38:28;;;;;;;8.90;5.07;;;;;;;8.53;100.00;100861.06;5049898;28;20703;-68
2023/10/23 05:40:58;;;;;;;7.80;3.95;;;;;;;8.54;100.00;100864.53;5053726;28;20040;-69
2023/10/23 05:43:24;;;;;;;7.45;4.38;;;;;;;8.51;100.00;100873.09;5052895;28;20106;-69
2023/10/23 05:45:50;;;;;;;6.30;3.47;;;;;;;8.49;100.00;100861.91;5051580;28;20040;-69
2023/10/23 05:48:15;;;;;;;5.57;3.78;;;;;;;8.47;100.00;100866.22;5054691;28;20727;-69
2023/10/23 05:50:40;;;;;;;8.20;3.78;;;;;;;8.47;100.00;100873.94;5053319;28;20060;-69
2023/10/23 05:53:06;;;;;;;5.60;3.58;;;;;;;8.43;100.00;100876.50;5037784;28;20115;-69
2023/10/23 05:55:35;;;;;;;6.22;3.83;;;;;;;8.40;100.00;100879.94;5055016;28;20115;-69
2023/10/23 05:58:00;;;;;;;6.07;3.90;;;;;;;8.42;100.00;100879.94;5054088;28;20033;-69
2023/10/23 06:00:26;;;;;;;6.57;4.43;;;;;;;8.42;100.00;100877.38;5056172;28;20690;-70
2023/10/23 06:02:52;;;;;;;10.43;4.40;;;;;;;8.41;100.00;100873.06;5056673;28;20068;-69
2023/10/23 06:05:17;;;;;;;6.78;4.70;;;;;;;8.39;100.00;100867.06;5054758;28;20115;-69
2023/10/23 06:07:42;;;;;;;7.45;4.10;;;;;;;8.38;100.00;100871.34;5057929;28;20749;-69
2023/10/23 06:10:08;;;;;;;7.10;4.78;;;;;;;8.40;100.00;100869.63;5057089;28;20052;-69
2023/10/23 06:12:33;;;;;;;6.03;4.50;;;;;;;8.40;100.00;100871.34;5056376;28;20068;-69
2023/10/23 06:14:59;;;;;;;9.50;4.10;;;;;;;8.38;100.00;100879.06;5059172;28;20607;-69
2023/10/23 06:17:24;;;;;;;7.20;4.03;;;;;;;8.37;100.00;100884.22;5058467;28;20033;-69
2023/10/23 06:19:50;;;;;;;9.68;4.30;;;;;;;8.39;100.00;100887.66;5058719;28;20086;-69
2023/10/23 06:22:15;;;;;;;10.18;4.47;;;;;;;8.39;100.00;100883.38;5061480;28;20085;-69
2023/10/23 06:24:41;;;;;;;9.95;4.63;;;;;;;8.39;100.00;100883.38;5060665;28;20044;-69
2023/10/23 06:27:06;;;;;;;12.98;4.30;;;;;;;8.41;100.00;100891.09;5053363;28;20523;-69
2023/10/23 06:29:31;;;;;;;5.20;3.85;;;;;;;8.42;100.00;100891.13;5055682;28;20147;-69
2023/10/23 06:31:57;;;;;;;8.13;4.57;;;;;;;8.44;100.00;100893.69;5060419;28;20127;-69
2023/10/23 06:34:22;;;;;;;7.88;3.72;;;;;;;8.48;100.00;100885.13;5062407;28;20032;-68
2023/10/23 06:36:48;;;;;;;5.78;3.88;;;;;;;8.51;100.00;100887.69;5058525;28;20068;-69
2023/10/23 06:39:13;;;;;;;10.82;4.15;;;;;;;8.55;100.00;100889.41;5052424;28;20505;-69
2023/10/23 06:41:38;;;;;;;6.30;4.32;;;;;;;8.56;100.00;100886.84;5053405;28;20182;-69
2023/10/23 06:44:04;;;;;;;8.98;4.53;;;;;;;8.67;100.00;100883.41;5054962;28;20043;-69
2023/10/23 06:46:29;;;;;;;10.13;4.90;;;;;;;8.73;100.00;100884.28;5058027;28;20045;-69
2023/10/23 06:48:55;;;;;;;12.27;5.05;;;;;;;8.77;100.00;100880.84;5051330;28;20037;-69
2023/10/23 06:51:20;;;;;;;9.18;5.00;;;;;;;8.82;100.00;100880.84;5059281;28;20052;-68
2023/10/23 06:53:45;;;;;;;11.73;5.20;;;;;;;8.84;100.00;100881.72;5055663;28;20054;-70
2023/10/23 06:56:11;;;;;;;8.20;5.28;;;;;;;8.86;100.00;100892.88;5053433;28;20119;-69
2023/10/23 06:58:36;;;;;;;10.82;5.28;;;;;;;8.88;100.00;100891.16;5055342;28;20151;-69
2023/10/23 07:01:08;;;;;;;13.65;6.35;;;;;;;8.92;100.00;100905.78;5056788;28;20033;-68
2023/10/23 07:03:35;;;;;;;14.32;6.80;;;;;;;8.95;100.00;100898.91;5034781;28;20041;-69
2023/10/23 07:06:07;;;;;;;11.48;7.30;;;;;;;9.00;100.00;100904.91;5056190;28;20052;-68
2023/10/23 07:08:33;;;;;;;11.55;6.80;;;;;;;9.02;100.00;100898.03;5053123;28;20086;-68
2023/10/23 07:10:58;;;;;;;15.73;8.23;;;;;;;9.05;100.00;100902.34;5051643;28;20036;-69
2023/10/23 07:13:24;;;;;;;14.23;8.52;;;;;;;9.08;100.00;100902.31;5052959;28;20491;-69
2023/10/23 07:15:50;;;;;;;17.38;9.00;;;;;;;9.14;100.00;100905.78;5037235;28;20055;-69
2023/10/23 07:18:17;;;;;;;17.30;9.75;;;;;;;9.24;100.00;100908.34;5057116;28;20494;-69
2023/10/23 07:20:55;;;;;;;20.85;10.50;;;;;;;9.31;100.00;100907.50;5056435;28;20033;-69
2023/10/23 07:23:22;;;;;;;24.70;12.20;;;;;;;9.41;100.00;100898.84;5053538;28;20399;-70
2023/10/23 07:25:48;;;;;;;34.08;12.38;;;;;;;9.53;100.00;100904.88;5053651;28;20131;-68
2023/10/23 07:28:13;;;;;;;21.98;11.63;;;;;;;9.64;100.00;100902.31;5056932;28;20411;-69
2023/10/23 07:30:38;;;;;;;23.77;10.63;;;;;;;9.67;100.00;100884.25;5055503;28;20098;-68
2023/10/23 07:33:04;;;;;;;18.73;11.20;;;;;;;9.78;100.00;100882.47;5034681;28;20805;-68
2023/10/23 07:35:29;;;;;;;19.48;11.23;;;;;;;9.80;100.00;100878.16;5036353;28;20052;-68
2023/10/23 07:37:54;;;;;;;18.20;10.15;;;;;;;9.88;100.00;100873.81;5055686;28;20029;-69
2023/10/23 07:40:20;;;;;;;17.00;10.35;;;;;;;9.97;100.00;100884.09;5046696;28;20037;-68
2023/10/23 07:42:45;;;;;;;17.73;10.90;;;;;;;10.10;100.00;100882.34;5057342;28;20043;-69
2023/10/23 07:45:11;;;;;;;21.02;10.95;;;;;;;10.17;100.00;100869.41;5059315;28;20048;-69
2023/10/23 07:47:36;;;;;;;20.80;11.13;;;;;;;10.30;100.00;100872.75;5056258;28;20060;-69
2023/10/23 07:50:04;;;;;;;17.27;10.88;;;;;;;10.36;100.00;100875.31;5057046;28;20060;-70
2023/10/23 07:52:29;;;;;;;18.45;11.05;;;;;;;10.48;100.00;100867.47;5053409;28;20102;-70
2023/10/23 07:54:55;;;;;;;17.23;9.95;;;;;;;10.57;100.00;100862.25;5056400;28;20495;-70
2023/10/23 07:57:20;;;;;;;17.08;10.60;;;;;;;10.62;100.00;100857.06;5054792;28;20044;-70
2023/10/23 07:59:45;;;;;;;16.98;10.32;;;;;;;10.71;100.00;100859.59;5058571;28;20143;-69
2023/10/23 08:02:11;;;;;;;18.23;10.88;;;;;;;10.75;100.00;100862.13;5056711;28;20043;-68
2023/10/23 08:04:36;;;;;;;16.90;10.50;;;;;;;10.72;100.00;100859.56;5054843;28;20055;-68
2023/10/23 08:07:02;;;;;;;15.18;10.13;;;;;;;10.80;100.00;100862.94;5055478;28;20047;-69
2023/10/23 08:09:27;;;;;;;12.57;8.30;;;;;;;10.80;100.00;100862.09;5058182;28;20044;-62
2023/10/23 08:11:53;;;;;;;15.68;9.45;;;;;;;10.87;100.00;100862.91;5055193;28;20048;-63
2023/10/23 08:14:19;;;;;;;16.65;8.90;;;;;;;10.96;100.00;100857.66;5055914;28;20090;-63
2023/10/23 08:16:44;;;;;;;15.93;9.25;;;;;;;11.02;100.00;100855.00;5051415;28;20033;-62
2023/10/23 08:19:10;;;;;;;13.60;8.88;;;;;;;11.11;100.00;100855.78;5055078;28;20040;-63
2023/10/23 08:21:36;;;;;;;14.27;7.70;;;;;;;11.15;100.00;100864.38;5053538;28;20070;-62
2023/10/23 08:24:02;;;;;;;12.60;6.75;;;;;;;11.19;100.00;100864.31;5052626;28;20044;-63
2023/10/23 08:26:29;;;;;;;13.02;7.35;;;;;;;11.28;100.00;100861.66;5053784;28;20036;-62
2023/10/23 08:28:54;;;;;;;14.73;7.88;;;;;;;11.34;100.00;100859.00;5054004;28;20379;-62
2023/10/23 08:31:19;;;;;;;12.23;8.02;;;;;;;11.39;100.00;100861.56;5051343;28;20037;-63
2023/10/23 08:33:45;;;;;;;12.30;7.30;;;;;;;11.52;100.00;100863.16;5054777;28;20044;-63
2023/10/23 08:36:10;;;;;;;10.70;6.53;;;;;;;11.58;100.00;100857.94;5053874;28;20717;-63
2023/10/23 08:38:36;;;;;;;10.95;7.50;;;;;;;11.73;100.00;100864.66;5051250;28;20136;-64
2023/10/23 08:41:04;;;;;;;10.27;6.63;;;;;;;11.73;100.00;100862.06;5051658;28;20024;-64
2023/10/23 08:43:30;;;;;;;13.90;6.78;;;;;;;11.79;100.00;100869.78;5054176;28;20048;-64
2023/10/23 08:45:59;;;;;;;11.23;6.90;;;;;;;11.85;100.00;100865.38;5048342;28;20071;-64
2023/10/23 08:48:25;;;;;;;15.32;10.70;;;;;;;11.94;100.00;100863.56;5050359;28;20029;-64
2023/10/23 08:50:51;;;;;;;12.38;7.88;;;;;;;11.82;100.00;100865.41;5052405;28;20102;-64
2023/10/23 08:53:22;;;;;;;14.63;9.45;;;;;;;11.86;100.00;100861.94;5054597;28;20040;-64
2023/10/23 08:55:48;;;;;;;12.82;8.25;;;;;;;12.04;100.00;100865.16;5049145;28;20666;-65
2023/10/23 08:58:13;;;;;;;16.83;10.73;;;;;;;12.16;100.00;100868.47;5053060;28;20098;-64
2023/10/23 09:00:38;;;;;;;12.82;8.60;;;;;;;12.15;100.00;100860.69;5053745;28;20046;-64
2023/10/23 09:03:05;;;;;;;11.20;7.53;;;;;;;12.12;100.00;100855.53;5054024;28;20048;-64
2023/10/23 09:05:30;;;;;;;10.55;8.77;;;;;;;12.15;100.00;100846.00;5054537;28;20050;-64
2023/10/23 09:07:56;;;;;;;13.23;9.90;;;;;;;12.26;100.00;100838.94;5055379;28;20032;-64
2023/10/23 09:10:21;;;;;;;38.33;22.92;;;;;;;12.44;100.00;100833.47;5052301;28;20044;-64
2023/10/23 09:12:56;;;;;;;89.85;48.85;;;;;;;12.54;100.00;100841.13;5053614;28;20067;-64
2023/10/23 09:15:23;;;;;;;71.05;43.38;;;;;;;12.58;100.00;100835.88;5052227;28;20159;-64
2023/10/23 09:17:51;;;;;;;32.97;22.20;;;;;;;12.73;100.00;100829.59;5057211;28;20068;-64
2023/10/23 09:20:17;;;;;;;13.40;8.85;;;;;;;12.66;100.00;100825.38;5051821;28;20116;-64
2023/10/23 09:22:47;;;;;;;10.10;6.38;;;;;;;12.61;100.00;100827.19;5051912;28;20040;-64
2023/10/23 09:25:16;;;;;;;10.75;6.68;;;;;;;12.81;100.00;100826.00;5054865;28;20114;-64
2023/10/23 09:27:42;;;;;;;9.82;5.95;;;;;;;12.89;100.00;100823.25;5053559;28;20116;-64
2023/10/23 09:30:08;;;;;;;9.45;6.80;;;;;;;12.97;100.00;100816.19;5059113;28;20055;-65
2023/10/23 09:32:35;;;;;;;11.45;6.25;;;;;;;13.15;100.00;100822.88;5056610;28;20034;-65
2023/10/23 09:35:02;;;;;;;7.43;5.05;;;;;;;13.13;100.00;100817.69;5056376;28;20033;-64
2023/10/23 09:37:27;;;;;;;9.98;6.13;;;;;;;13.13;100.00;100811.63;5057807;28;20155;-69
2023/10/23 09:39:53;;;;;;;9.73;5.13;;;;;;;13.25;100.00;100812.28;5043219;28;20504;-69
2023/10/23 09:42:18;;;;;;;10.05;6.45;;;;;;;13.22;100.00;100814.91;5056443;28;20106;-69
2023/10/23 09:44:45;;;;;;;10.23;6.63;;;;;;;13.28;100.00;100809.63;5054517;28;20048;-69
2023/10/23 09:47:11;;;;;;;15.57;7.20;;;;;;;13.39;100.00;100809.41;5055670;28;20119;-69
2023/10/23 09:49:39;;;;;;;12.05;5.75;;;;;;;13.39;100.00;100815.47;5052338;28;20075;-69
2023/10/23 09:52:07;;;;;;;12.50;5.32;;;;;;;13.48;100.00;100810.09;5056837;28;20828;-65
2023/10/23 09:54:38;;;;;;;9.15;5.47;;;;;;;13.57;99.94;100803.84;5057541;28;20040;-65
2023/10/23 09:57:07;;;;;;;15.82;8.30;;;;;;;13.68;100.00;100804.50;5054473;28;20531;-65
2023/10/23 09:59:42;;;;;;;11.65;7.43;;;;;;;13.52;98.77;100790.97;5055830;28;20106;-65
2023/10/23 10:02:09;;;;;;;;;;;;;;;13.58;99.60;100797.78;5057192;28;20020;-65
2023/10/23 10:04:51;;;;;;;15.38;7.60;;;;;;;13.54;97.93;100790.94;5055521;28;20295;-65
2023/10/23 10:07:35;;;;;;;19.27;12.32;;;;;;;13.67;99.32;100782.00;5056897;28;20068;-65
2023/10/23 10:10:01;;;;;;;14.60;7.72;;;;;;;13.62;99.07;100780.41;5048263;28;20083;-64
2023/10/23 10:12:28;;;;;;;20.85;9.30;;;;;;;13.62;97.77;100773.47;5055691;28;20048;-64
2023/10/23 10:14:55;;;;;;;24.75;11.30;;;;;;;13.69;99.34;100775.03;5056363;28;20541;-64
2023/10/23 10:17:20;;;;;;;14.88;8.15;;;;;;;13.84;98.97;100777.31;5057499;28;20444;-63
2023/10/23 10:19:46;;;;;;;12.50;6.18;;;;;;;14.01;99.12;100763.94;5056566;28;20020;-64
2023/10/23 10:22:23;;;;;;;17.95;7.78;;;;;;;14.16;97.76;100760.16;5021027;28;20032;-64
2023/10/23 10:24:50;;;;;;;23.10;12.15;;;;;;;14.21;96.43;100758.31;5055644;28;20032;-65
2023/10/23 10:27:15;;;;;;;15.93;7.78;;;;;;;14.26;95.52;100754.69;5055733;28;20147;-65
2023/10/23 10:29:41;;;;;;;15.40;7.43;;;;;;;14.34;95.74;100749.31;5052872;28;21712;-64
2023/10/23 10:32:11;;;;;;;12.65;6.68;;;;;;;14.44;95.23;100746.50;5057136;28;20039;-64
2023/10/23 10:34:45;;;;;;;9.88;5.78;;;;;;;14.47;94.74;100743.81;5053856;28;20032;-64
2023/10/23 10:37:11;;;;;;;8.73;5.15;;;;;;;14.57;94.27;100737.47;5056293;28;20033;-64
2023/10/23 10:39:52;;;;;;;10.07;5.50;;;;;;;14.61;93.54;100741.72;5052604;28;20603;-64
2023/10/23 10:42:26;;;;;;;11.20;6.53;;;;;;;14.59;93.21;100735.72;5057611;28;20036;-64
2023/10/23 10:44:52;;;;;;;17.83;8.83;;;;;;;14.64;92.85;100736.44;5057150;28;20050;-64
2023/10/23 10:47:18;;;;;;;6.93;3.60;;;;;;;14.56;91.54;100734.94;5055039;28;20814;-64
2023/10/23 10:49:45;;;;;;;12.38;7.20;;;;;;;14.55;90.88;100726.28;5060620;28;20044;-65
2023/10/23 10:52:30;;;;;;;13.82;6.07;;;;;;;14.56;91.56;100724.53;5043099;28;20123;-63
2023/10/23 10:55:17;;;;;;;10.90;4.97;;;;;;;14.57;91.83;100719.28;5060549;28;20048;-65
2023/10/23 10:57:46;;;;;;;11.18;6.72;;;;;;;14.79;90.93;100714.38;5060362;28;20041;-65
2023/10/23 11:00:12;;;;;;;9.38;4.50;;;;;;;14.96;92.05;100717.38;5056137;28;20041;-63
2023/10/23 11:02:39;;;;;;;7.00;3.55;;;;;;;15.04;89.41;100697.22;5054599;28;20047;-64
2023/10/23 11:05:11;;;;;;;5.68;3.17;;;;;;;15.07;89.75;100704.09;5055069;28;20747;-65
2023/10/23 11:07:40;;;;;;;10.23;4.15;;;;;;;15.14;90.52;100695.19;5053979;28;20098;-65
2023/10/23 11:10:06;;;;;;;8.15;3.33;;;;;;;15.16;89.72;100686.47;5057493;28;20036;-62
2023/10/23 11:12:32;;;;;;;6.25;2.67;;;;;;;15.03;87.77;100677.28;5053895;28;20041;-62
2023/10/23 11:14:57;;;;;;;6.10;3.00;;;;;;;15.03;86.91;100674.69;5055982;28;20042;-62